Grand Princess — ZCBU5 — position and weather

sailwx.info

Track history (hours):
 
Tides and Currents Weather Stations Pressure Air Temp Water Temp Dewpoint Dewpoint Depression Visibility Wind Speed Wind Dir Waves Ship Positions

Grand Princess

Operator: Princess Cruises

Last reported at 2019-Jan-23 18:00 UTC. Time now 2019-Jan-24 06:33 UTC.
Position N 23°12' W 106°24'.

Length 289.5 m; beam 36 m; draft 8.5 m.

Type: Ship. MMSI: 310327000.

Wind from 330 at 8 knots

Barometer 1015.0 mb
Air temperature 25.0 ° C
Visibility: greater than 10.8 NM
Dewpoint 17.0 ° C
Water temperature 25.0 ° C

Date/timePositionNaut miles runAvg speedWind from/ knotsBaromVisibWave heightAir tempDewpointWater temp
2019-Jan-23 18:00N 23°12' W 106°24'9310.3 330 / 81015.010.8 25.017.025.0
2019-Jan-23 09:00N 21°42' W 106°00'6616.6 330 / 101012.010.8 24.523.028.0
2019-Jan-23 05:00N 20°36' W 105°54'40 1.7 350 / 111012.010.8 24.523.028.0
2019-Jan-22 05:00N 20°00' W 105°36'37010.3 320 / 81013.810.8 25.521.829.0
2019-Jan-20 17:00N 23°36' W 111°00'37419.7 010 / 151015.810.8 21.515.722.0
2019-Jan-19 22:00N 28°06' W 115°48'11228.1 360 / 231019.010.8 17.014.418.0
2019-Jan-19 18:00N 29°48' W 116°42'5314.6 360 / 171022.410.8 16.516.517.0
2019-Jan-19 14:22N 30°09' W 117°38'719.6
2019-Jan-19 14:00N 30°15' W 117°43'1019.5
2019-Jan-19 13:30N 30°23' W 117°50'1019.6
2019-Jan-19 13:00N 30°30' W 117°57'1519.6
2019-Jan-19 12:14N 30°43' W 118°07'519.7
2019-Jan-19 11:59N 30°46' W 118°11'1219.6
2019-Jan-19 11:23N 30°56' W 118°19'719.4
2019-Jan-19 11:00N 31°02' W 118°24'1619.3
2019-Jan-19 10:11N 31°14' W 118°35'319.4
2019-Jan-19 10:00N 31°17' W 118°38'13799.4
2019-Jan-19 10:00N 31°06' W 118°30'2246.4 350 / 171024.0 14.014.016.0
2019-Jan-19 09:31N 31°25' W 118°45'1019.8
2019-Jan-19 09:00N 31°33' W 118°52'1019.7
2019-Jan-19 08:30N 31°40' W 118°59'1020.0
2019-Jan-19 08:00N 31°48' W 119°06'1020.0
2019-Jan-19 07:30N 31°56' W 119°13'1019.6
2019-Jan-19 07:00N 32°04' W 119°20'1019.1
2019-Jan-19 06:30N 32°12' W 119°27'611.9
2019-Jan-19 06:00N 32°06' W 119°24'18162.3 350 / 161025.8 14.013.115.0
2019-Jan-19 05:53N 32°21' W 119°35'719.1
2019-Jan-19 05:30N 32°27' W 119°40'3119.2
2019-Jan-19 03:55N 32°51' W 120°03'1519.2
2019-Jan-19 03:09N 33°03' W 120°13'319.1
2019-Jan-19 03:00N 33°05' W 120°15'919.0
2019-Jan-19 02:31N 33°12' W 120°22'1019.1
2019-Jan-19 02:01N 33°20' W 120°29'1019.3
2019-Jan-19 01:31N 33°28' W 120°36'918.2
2019-Jan-19 01:00N 33°35' W 120°43'816.9
2019-Jan-19 00:30N 33°42' W 120°49'1019.1
2019-Jan-19 00:00N 33°49' W 120°55'1019.1
2019-Jan-18 23:29N 33°58' W 121°01'919.0
2019-Jan-18 23:00N 34°06' W 121°06'1018.9
2019-Jan-18 22:29N 34°15' W 121°11'918.8
2019-Jan-18 22:00N 34°24' W 121°15'61620.8
2019-Jan-18 22:00N 34°18' W 121°12'1632.2 340 / 131024.510.8 16.012.415.0
2019-Jan-18 21:30N 34°32' W 121°20'918.7
2019-Jan-18 21:01N 34°41' W 121°25'918.4
2019-Jan-18 20:31N 34°49' W 121°30'918.6
2019-Jan-18 20:01N 34°57' W 121°34'918.6
2019-Jan-18 19:31N 35°06' W 121°39'918.5
2019-Jan-18 19:00N 35°14' W 121°44'918.8
2019-Jan-18 18:31N 35°23' W 121°49'918.5
2019-Jan-18 18:00N 35°31' W 121°54'918.2
2019-Jan-18 17:31N 35°39' W 121°58'918.5
2019-Jan-18 17:00N 35°48' W 122°03'918.3
2019-Jan-18 16:31N 35°56' W 122°08'6318.0
2019-Jan-18 12:59N 36°55' W 122°36'2117.5
2019-Jan-18 11:47N 37°15' W 122°43'517.6
2019-Jan-18 11:31N 37°20' W 122°44'918.0
2019-Jan-18 11:01N 37°29' W 122°44'816.9
2019-Jan-18 10:31N 37°37' W 122°44'612.7
2019-Jan-18 10:00N 37°44' W 122°45'4 8.6
2019-Jan-18 09:30N 37°45' W 122°40'510.5
2019-Jan-18 09:01N 37°47' W 122°34'714.0
2019-Jan-18 08:30N 37°49' W 122°25'2 3.3
2019-Jan-18 07:58N 37°49' W 122°23'0 0.0
2019-Jan-18 07:28N 37°49' W 122°23'0 0.0
2019-Jan-18 06:58N 37°49' W 122°23'0 0.0
2019-Jan-18 06:31N 37°49' W 122°23'0 0.1
2019-Jan-18 06:00N 37°49' W 122°23'0 0.0
2019-Jan-18 05:30N 37°49' W 122°23'0 0.0
2019-Jan-18 05:00N 37°49' W 122°23'0 0.0
2019-Jan-18 04:30N 37°49' W 122°23'0 0.0
2019-Jan-18 03:59N 37°49' W 122°23'0 0.0
2019-Jan-18 03:29N 37°49' W 122°23'1 1.5
2019-Jan-18 03:01N 37°49' W 122°24'0 0.7
2019-Jan-18 02:28N 37°48' W 122°24'0 0.0
2019-Jan-18 01:58N 37°48' W 122°24'0 0.0
2019-Jan-18 01:28N 37°48' W 122°24'0 0.0
2019-Jan-18 01:01N 37°48' W 122°24'0 0.0
2019-Jan-18 00:30N 37°48' W 122°24'0 0.0
2019-Jan-18 00:00N 37°48' W 122°24'0 0.0
2019-Jan-17 23:30N 37°48' W 122°24'0 0.0
2019-Jan-17 23:00N 37°48' W 122°24'0 0.0
2019-Jan-17 22:29N 37°48' W 122°24'0 0.0
2019-Jan-17 21:59N 37°48' W 122°24'0 0.0
2019-Jan-17 21:29N 37°48' W 122°24'0 0.0
2019-Jan-17 20:59N 37°48' W 122°24'0 0.0
2019-Jan-17 20:29N 37°48' W 122°24'0 0.0
2019-Jan-17 19:58N 37°48' W 122°24'0 0.0
2019-Jan-17 19:28N 37°48' W 122°24'0 0.8
2019-Jan-17 19:00N 37°48' W 122°24'014.9 240 / 101017.7 1.1 14.513.612.0
2019-Jan-17 18:58N 37°48' W 122°24'0 0.0
2019-Jan-17 18:28N 37°48' W 122°24'0 0.0
2019-Jan-17 18:01N 37°48' W 122°24'0 0.0
2019-Jan-17 17:30N 37°48' W 122°24'0 0.0
2019-Jan-17 17:00N 37°48' W 122°24'0 0.0
2019-Jan-17 16:30N 37°48' W 122°24'0 0.0
2019-Jan-17 16:00N 37°48' W 122°24'0 0.0
2019-Jan-17 15:29N 37°48' W 122°24'0 0.0
2019-Jan-17 14:59N 37°48' W 122°24'0 0.0
2019-Jan-17 14:30N 37°48' W 122°24'1 1.1
2019-Jan-17 14:00N 37°49' W 122°24'611.9
2019-Jan-17 13:30N 37°48' W 122°32'714.6
2019-Jan-17 13:00N 37°45' W 122°40'612.3
2019-Jan-17 12:30N 37°39' W 122°40'815.1
2019-Jan-17 12:01N 37°31' W 122°40'8914.8
2019-Jan-17 06:00N 36°06' W 122°06'5919.8 240 / 341012.3 0.5 15.014.114.0
2019-Jan-17 03:00N 35°09' W 121°47'917.6
2019-Jan-17 02:30N 35°00' W 121°44'917.7
2019-Jan-17 02:00N 34°52' W 121°41'917.6
2019-Jan-17 01:30N 34°43' W 121°38'917.4
2019-Jan-17 01:00N 34°35' W 121°35'917.5
2019-Jan-17 00:30N 34°27' W 121°32'918.3
2019-Jan-17 00:00N 34°18' W 121°28'1019.4
2019-Jan-16 23:30N 34°09' W 121°25'1019.3
2019-Jan-16 23:00N 33°60' W 121°22'1019.2
2019-Jan-16 22:30N 33°50' W 121°18'1019.3
2019-Jan-16 22:00N 33°41' W 121°15'2151.8
2019-Jan-16 22:00N 33°42' W 121°12'1020.9 140 / 201017.3 0.5 14.010.215.0
2019-Jan-16 21:30N 33°32' W 121°11'1019.4
2019-Jan-16 21:00N 33°23' W 121°08'1019.2
2019-Jan-16 20:30N 33°14' W 121°04'1519.3
2019-Jan-16 19:43N 33°01' W 120°54'419.2
2019-Jan-16 19:30N 32°58' W 120°51'1918.3
2019-Jan-16 18:27N 32°44' W 120°34'4 9.2
2019-Jan-16 18:00N 32°42' W 120°30'12415.5 160 / 101020.210.8 15.015.015.0
2019-Jan-16 10:00N 31°18' W 118°42'7919.8 310 / 191020.0 16.014.316.0
2019-Jan-16 06:00N 30°18' W 117°42'15719.7 210 / 181019.8 17.016.218.0
2019-Jan-15 22:00N 28°12' W 115°54'9022.4 290 / 51017.710.8 12.010.118.0
2019-Jan-15 18:00N 27°00' W 114°54'20222.4 130 / 131019.610.8 19.518.720.0
2019-Jan-15 09:00N 24°30' W 112°24'5317.7 120 / 41018.0 21.521.524.0
2019-Jan-15 06:00N 24°00' W 111°36'218 9.1 180 / 71017.9 21.521.524.0
2019-Jan-14 06:00N 23°00' W 107°48'   320 / 231013.510.8 23.523.525.0
Track history (hours):
 
Tides and Currents Weather Stations Pressure Air Temp Water Temp Dewpoint Dewpoint Depression Visibility Wind Speed Wind Dir Waves Ship Positions

Grand Princess

Operator: Princess Cruises

Last reported at 2019-Jan-23 18:00 UTC. Time now 2019-Jan-24 06:33 UTC.
Position N 23°12' W 106°24'.

Length 289.5 m; beam 36 m; draft 8.5 m.

Type: Ship. MMSI: 310327000.

Wind from 330 at 8 knots

Barometer 1015.0 mb
Air temperature 25.0 ° C
Visibility: greater than 10.8 NM
Dewpoint 17.0 ° C
Water temperature 25.0 ° C

Date/timePositionNaut miles runAvg speedWind from/ knotsBaromVisibWave heightAir tempDewpointWater temp
2019-Jan-23 18:00N 23°12' W 106°24'9310.3 330 / 81015.010.8 25.017.025.0
2019-Jan-23 09:00N 21°42' W 106°00'6616.6 330 / 101012.010.8 24.523.028.0
2019-Jan-23 05:00N 20°36' W 105°54'40 1.7 350 / 111012.010.8 24.523.028.0
2019-Jan-22 05:00N 20°00' W 105°36'37010.3 320 / 81013.810.8 25.521.829.0
2019-Jan-20 17:00N 23°36' W 111°00'37419.7 010 / 151015.810.8 21.515.722.0
2019-Jan-19 22:00N 28°06' W 115°48'11228.1 360 / 231019.010.8 17.014.418.0
2019-Jan-19 18:00N 29°48' W 116°42'5314.6 360 / 171022.410.8 16.516.517.0
2019-Jan-19 14:22N 30°09' W 117°38'719.6
2019-Jan-19 14:00N 30°15' W 117°43'1019.5
2019-Jan-19 13:30N 30°23' W 117°50'1019.6
2019-Jan-19 13:00N 30°30' W 117°57'1519.6
2019-Jan-19 12:14N 30°43' W 118°07'519.7
2019-Jan-19 11:59N 30°46' W 118°11'1219.6
2019-Jan-19 11:23N 30°56' W 118°19'719.4
2019-Jan-19 11:00N 31°02' W 118°24'1619.3
2019-Jan-19 10:11N 31°14' W 118°35'319.4
2019-Jan-19 10:00N 31°17' W 118°38'13799.4
2019-Jan-19 10:00N 31°06' W 118°30'2246.4 350 / 171024.0 14.014.016.0
2019-Jan-19 09:31N 31°25' W 118°45'1019.8
2019-Jan-19 09:00N 31°33' W 118°52'1019.7
2019-Jan-19 08:30N 31°40' W 118°59'1020.0
2019-Jan-19 08:00N 31°48' W 119°06'1020.0
2019-Jan-19 07:30N 31°56' W 119°13'1019.6
2019-Jan-19 07:00N 32°04' W 119°20'1019.1
2019-Jan-19 06:30N 32°12' W 119°27'611.9
2019-Jan-19 06:00N 32°06' W 119°24'18162.3 350 / 161025.8 14.013.115.0
2019-Jan-19 05:53N 32°21' W 119°35'719.1
2019-Jan-19 05:30N 32°27' W 119°40'3119.2
2019-Jan-19 03:55N 32°51' W 120°03'1519.2
2019-Jan-19 03:09N 33°03' W 120°13'319.1
2019-Jan-19 03:00N 33°05' W 120°15'919.0
2019-Jan-19 02:31N 33°12' W 120°22'1019.1
2019-Jan-19 02:01N 33°20' W 120°29'1019.3
2019-Jan-19 01:31N 33°28' W 120°36'918.2
2019-Jan-19 01:00N 33°35' W 120°43'816.9
2019-Jan-19 00:30N 33°42' W 120°49'1019.1
2019-Jan-19 00:00N 33°49' W 120°55'1019.1
2019-Jan-18 23:29N 33°58' W 121°01'919.0
2019-Jan-18 23:00N 34°06' W 121°06'1018.9
2019-Jan-18 22:29N 34°15' W 121°11'918.8
2019-Jan-18 22:00N 34°24' W 121°15'61620.8
2019-Jan-18 22:00N 34°18' W 121°12'1632.2 340 / 131024.510.8 16.012.415.0
2019-Jan-18 21:30N 34°32' W 121°20'918.7
2019-Jan-18 21:01N 34°41' W 121°25'918.4
2019-Jan-18 20:31N 34°49' W 121°30'918.6
2019-Jan-18 20:01N 34°57' W 121°34'918.6
2019-Jan-18 19:31N 35°06' W 121°39'918.5
2019-Jan-18 19:00N 35°14' W 121°44'918.8
2019-Jan-18 18:31N 35°23' W 121°49'918.5
2019-Jan-18 18:00N 35°31' W 121°54'918.2
2019-Jan-18 17:31N 35°39' W 121°58'918.5
2019-Jan-18 17:00N 35°48' W 122°03'918.3
2019-Jan-18 16:31N 35°56' W 122°08'6318.0
2019-Jan-18 12:59N 36°55' W 122°36'2117.5
2019-Jan-18 11:47N 37°15' W 122°43'517.6
2019-Jan-18 11:31N 37°20' W 122°44'918.0
2019-Jan-18 11:01N 37°29' W 122°44'816.9
2019-Jan-18 10:31N 37°37' W 122°44'612.7
2019-Jan-18 10:00N 37°44' W 122°45'4 8.6
2019-Jan-18 09:30N 37°45' W 122°40'510.5
2019-Jan-18 09:01N 37°47' W 122°34'714.0
2019-Jan-18 08:30N 37°49' W 122°25'2 3.3
2019-Jan-18 07:58N 37°49' W 122°23'0 0.0
2019-Jan-18 07:28N 37°49' W 122°23'0 0.0
2019-Jan-18 06:58N 37°49' W 122°23'0 0.0
2019-Jan-18 06:31N 37°49' W 122°23'0 0.1
2019-Jan-18 06:00N 37°49' W 122°23'0 0.0
2019-Jan-18 05:30N 37°49' W 122°23'0 0.0
2019-Jan-18 05:00N 37°49' W 122°23'0 0.0
2019-Jan-18 04:30N 37°49' W 122°23'0 0.0
2019-Jan-18 03:59N 37°49' W 122°23'0 0.0
2019-Jan-18 03:29N 37°49' W 122°23'1 1.5
2019-Jan-18 03:01N 37°49' W 122°24'0 0.7
2019-Jan-18 02:28N 37°48' W 122°24'0 0.0
2019-Jan-18 01:58N 37°48' W 122°24'0 0.0
2019-Jan-18 01:28N 37°48' W 122°24'0 0.0
2019-Jan-18 01:01N 37°48' W 122°24'0 0.0
2019-Jan-18 00:30N 37°48' W 122°24'0 0.0
2019-Jan-18 00:00N 37°48' W 122°24'0 0.0
2019-Jan-17 23:30N 37°48' W 122°24'0 0.0
2019-Jan-17 23:00N 37°48' W 122°24'0 0.0
2019-Jan-17 22:29N 37°48' W 122°24'0 0.0
2019-Jan-17 21:59N 37°48' W 122°24'0 0.0
2019-Jan-17 21:29N 37°48' W 122°24'0 0.0
2019-Jan-17 20:59N 37°48' W 122°24'0 0.0
2019-Jan-17 20:29N 37°48' W 122°24'0 0.0
2019-Jan-17 19:58N 37°48' W 122°24'0 0.0
2019-Jan-17 19:28N 37°48' W 122°24'0 0.8
2019-Jan-17 19:00N 37°48' W 122°24'014.9 240 / 101017.7 1.1 14.513.612.0
2019-Jan-17 18:58N 37°48' W 122°24'0 0.0
2019-Jan-17 18:28N 37°48' W 122°24'0 0.0
2019-Jan-17 18:01N 37°48' W 122°24'0 0.0
2019-Jan-17 17:30N 37°48' W 122°24'0 0.0
2019-Jan-17 17:00N 37°48' W 122°24'0 0.0
2019-Jan-17 16:30N 37°48' W 122°24'0 0.0
2019-Jan-17 16:00N 37°48' W 122°24'0 0.0
2019-Jan-17 15:29N 37°48' W 122°24'0 0.0
2019-Jan-17 14:59N 37°48' W 122°24'0 0.0
2019-Jan-17 14:30N 37°48' W 122°24'1 1.1
2019-Jan-17 14:00N 37°49' W 122°24'611.9
2019-Jan-17 13:30N 37°48' W 122°32'714.6
2019-Jan-17 13:00N 37°45' W 122°40'612.3
2019-Jan-17 12:30N 37°39' W 122°40'815.1
2019-Jan-17 12:01N 37°31' W 122°40'8914.8
2019-Jan-17 06:00N 36°06' W 122°06'5919.8 240 / 341012.3 0.5 15.014.114.0
2019-Jan-17 03:00N 35°09' W 121°47'917.6
2019-Jan-17 02:30N 35°00' W 121°44'917.7
2019-Jan-17 02:00N 34°52' W 121°41'917.6
2019-Jan-17 01:30N 34°43' W 121°38'917.4
2019-Jan-17 01:00N 34°35' W 121°35'917.5
2019-Jan-17 00:30N 34°27' W 121°32'918.3
2019-Jan-17 00:00N 34°18' W 121°28'1019.4
2019-Jan-16 23:30N 34°09' W 121°25'1019.3
2019-Jan-16 23:00N 33°60' W 121°22'1019.2
2019-Jan-16 22:30N 33°50' W 121°18'1019.3
2019-Jan-16 22:00N 33°41' W 121°15'2151.8
2019-Jan-16 22:00N 33°42' W 121°12'1020.9 140 / 201017.3 0.5 14.010.215.0
2019-Jan-16 21:30N 33°32' W 121°11'1019.4
2019-Jan-16 21:00N 33°23' W 121°08'1019.2
2019-Jan-16 20:30N 33°14' W 121°04'1519.3
2019-Jan-16 19:43N 33°01' W 120°54'419.2
2019-Jan-16 19:30N 32°58' W 120°51'1918.3
2019-Jan-16 18:27N 32°44' W 120°34'4 9.2
2019-Jan-16 18:00N 32°42' W 120°30'12415.5 160 / 101020.210.8 15.015.015.0
2019-Jan-16 10:00N 31°18' W 118°42'7919.8 310 / 191020.0 16.014.316.0
2019-Jan-16 06:00N 30°18' W 117°42'15719.7 210 / 181019.8 17.016.218.0
2019-Jan-15 22:00N 28°12' W 115°54'9022.4 290 / 51017.710.8 12.010.118.0
2019-Jan-15 18:00N 27°00' W 114°54'20222.4 130 / 131019.610.8 19.518.720.0
2019-Jan-15 09:00N 24°30' W 112°24'5317.7 120 / 41018.0 21.521.524.0
2019-Jan-15 06:00N 24°00' W 111°36'218 9.1 180 / 71017.9 21.521.524.0
2019-Jan-14 06:00N 23°00' W 107°48'   320 / 231013.510.8 23.523.525.0

Dump ship's entire track history